createdAt,value
2023-03-31T00:00:46.796Z,13.00
2023-03-31T00:03:22.256Z,15.15
2023-03-31T00:05:53.470Z,14.10
2023-03-31T00:08:21.243Z,15.03
2023-03-31T00:10:48.383Z,10.15
2023-03-31T00:13:15.514Z,14.23
2023-03-31T00:15:42.352Z,10.32
2023-03-31T00:18:08.993Z,7.88
2023-03-31T00:20:38.090Z,15.15
2023-03-31T00:23:10.833Z,10.73
2023-03-31T00:25:41.789Z,12.27
2023-03-31T00:28:08.431Z,12.27
2023-03-31T00:30:35.246Z,12.70
2023-03-31T00:33:01.872Z,16.17
2023-03-31T00:35:28.635Z,8.93
2023-03-31T00:37:57.911Z,13.18
2023-03-31T00:40:24.702Z,13.57
2023-03-31T00:42:51.353Z,12.52
2023-03-31T00:45:25.335Z,14.30
2023-03-31T00:48:10.381Z,11.50
2023-03-31T00:50:57.639Z,17.63
2023-03-31T00:53:30.892Z,16.48
2023-03-31T00:56:03.053Z,15.70
2023-03-31T00:58:33.189Z,7.82
2023-03-31T01:01:04.099Z,11.82
2023-03-31T01:03:33.439Z,13.97
2023-03-31T01:06:07.104Z,10.85
2023-03-31T01:08:36.664Z,10.52
2023-03-31T01:11:07.120Z,10.25
2023-03-31T01:13:37.105Z,6.97
2023-03-31T01:16:04.059Z,8.77
2023-03-31T01:18:34.984Z,9.70
2023-03-31T01:21:20.278Z,12.10
2023-03-31T01:24:07.953Z,9.15
2023-03-31T01:26:56.267Z,8.57
2023-03-31T01:29:36.622Z,10.13
2023-03-31T01:32:38.427Z,10.45
2023-03-31T01:35:38.674Z,6.82
2023-03-31T01:38:21.300Z,9.38
2023-03-31T01:40:55.647Z,11.93
2023-03-31T01:43:49.239Z,10.40
2023-03-31T01:46:36.224Z,8.18
2023-03-31T01:49:11.483Z,12.40
2023-03-31T01:51:53.767Z,13.38
2023-03-31T01:54:22.785Z,9.48
2023-03-31T01:56:57.730Z,14.23
2023-03-31T01:59:28.388Z,11.55
2023-03-31T02:02:02.499Z,9.43
2023-03-31T02:04:37.502Z,10.65
2023-03-31T02:07:09.381Z,13.18
2023-03-31T02:09:41.701Z,12.20
2023-03-31T02:12:11.763Z,9.68
2023-03-31T02:14:43.168Z,11.07
2023-03-31T02:17:18.094Z,8.07
2023-03-31T02:19:49.286Z,11.73
2023-03-31T02:22:19.593Z,14.07
2023-03-31T02:24:48.790Z,9.93
2023-03-31T02:27:35.346Z,13.45
2023-03-31T02:30:03.836Z,11.25
2023-03-31T02:32:44.839Z,8.18
2023-03-31T02:35:22.122Z,12.53
2023-03-31T02:37:53.743Z,10.90
2023-03-31T02:40:22.728Z,11.57
2023-03-31T02:42:49.640Z,14.27
2023-03-31T02:45:42.973Z,13.75
2023-03-31T02:48:34.647Z,12.52
2023-03-31T02:51:48.719Z,12.65
2023-03-31T02:54:47.818Z,17.35
2023-03-31T02:57:22.830Z,16.40
2023-03-31T03:00:08.471Z,12.77
2023-03-31T03:03:07.396Z,19.70
2023-03-31T03:05:41.562Z,20.17
2023-03-31T03:08:26.174Z,14.07
2023-03-31T03:11:08.007Z,10.52
2023-03-31T03:13:52.837Z,13.82
2023-03-31T03:16:32.892Z,14.30
2023-03-31T03:19:02.095Z,15.63
2023-03-31T03:21:28.986Z,13.40
2023-03-31T03:23:55.766Z,16.08
2023-03-31T03:26:23.931Z,11.35
2023-03-31T03:28:51.399Z,17.67
2023-03-31T03:31:18.642Z,12.77
2023-03-31T03:33:45.429Z,15.82
2023-03-31T03:36:12.126Z,14.15
2023-03-31T03:38:38.838Z,13.32
2023-03-31T03:41:05.785Z,11.23
2023-03-31T03:43:32.421Z,13.30
2023-03-31T03:45:59.139Z,11.73
2023-03-31T03:48:26.586Z,10.30
2023-03-31T03:50:54.189Z,12.82
2023-03-31T03:53:21.280Z,8.80
2023-03-31T03:55:49.642Z,9.77
2023-03-31T03:58:17.195Z,13.13
2023-03-31T04:00:45.305Z,9.70
2023-03-31T04:03:12.648Z,11.38
2023-03-31T04:05:39.387Z,11.60
2023-03-31T04:08:08.321Z,10.07
2023-03-31T04:10:35.753Z,9.52
2023-03-31T04:13:02.501Z,10.65
2023-03-31T04:15:29.280Z,8.10
2023-03-31T04:17:58.302Z,10.43
2023-03-31T04:20:27.852Z,12.52
2023-03-31T04:22:54.820Z,5.45
2023-03-31T04:25:22.645Z,6.55
2023-03-31T04:27:55.828Z,8.45
2023-03-31T04:30:24.797Z,7.50
2023-03-31T04:32:56.304Z,14.73
2023-03-31T04:35:25.057Z,9.88
2023-03-31T04:37:58.629Z,4.38
2023-03-31T04:40:25.978Z,8.80
2023-03-31T04:42:52.677Z,8.63
2023-03-31T04:45:19.469Z,10.15
2023-03-31T04:47:46.135Z,18.75
2023-03-31T04:50:16.752Z,9.38
2023-03-31T04:52:44.989Z,9.45
2023-03-31T04:55:11.783Z,7.50
2023-03-31T04:57:38.485Z,10.93
2023-03-31T05:00:07.848Z,7.32
2023-03-31T05:02:34.825Z,7.88
2023-03-31T05:05:01.540Z,8.60
2023-03-31T05:07:28.135Z,10.90
2023-03-31T05:09:54.698Z,6.55
2023-03-31T05:12:21.483Z,11.20
2023-03-31T05:14:48.143Z,11.43
2023-03-31T05:17:14.797Z,13.80
2023-03-31T05:19:41.514Z,9.15
2023-03-31T05:22:08.150Z,6.70
2023-03-31T05:24:34.894Z,11.55
2023-03-31T05:27:02.018Z,8.52
2023-03-31T05:29:29.609Z,9.80
2023-03-31T05:31:56.260Z,11.43
2023-03-31T05:34:22.857Z,13.15
2023-03-31T05:36:51.257Z,7.63
2023-03-31T05:39:18.690Z,5.15
2023-03-31T05:41:45.549Z,8.07
2023-03-31T05:44:12.433Z,9.77
2023-03-31T05:46:39.071Z,5.45
2023-03-31T05:49:06.995Z,8.30
2023-03-31T05:51:34.126Z,6.15
2023-03-31T05:54:00.788Z,6.20
2023-03-31T05:56:27.536Z,8.38
2023-03-31T05:58:54.293Z,8.93
2023-03-31T06:01:22.745Z,9.52
2023-03-31T06:03:49.826Z,8.75
2023-03-31T06:06:16.637Z,9.25
2023-03-31T06:08:45.573Z,6.60
2023-03-31T06:11:21.130Z,7.13
2023-03-31T06:13:48.340Z,5.88
2023-03-31T06:16:17.298Z,6.40
2023-03-31T06:18:44.857Z,11.52
2023-03-31T06:21:14.875Z,7.15
2023-03-31T06:23:41.785Z,10.45
2023-03-31T06:26:08.864Z,4.80
2023-03-31T06:28:36.548Z,6.40
2023-03-31T06:31:12.646Z,6.05
2023-03-31T06:33:41.172Z,4.22
2023-03-31T06:36:08.820Z,7.00
2023-03-31T06:38:38.219Z,5.53
2023-03-31T06:41:06.578Z,6.88
2023-03-31T06:43:33.879Z,5.68
2023-03-31T06:46:01.339Z,5.70
2023-03-31T06:48:28.501Z,5.32
2023-03-31T06:50:58.803Z,5.20
2023-03-31T06:53:25.702Z,8.70
2023-03-31T06:55:52.350Z,10.75
2023-03-31T06:58:19.034Z,7.15
2023-03-31T07:00:48.430Z,4.90
2023-03-31T07:03:18.749Z,3.08
2023-03-31T07:05:53.367Z,7.18
2023-03-31T07:08:20.479Z,6.28
2023-03-31T07:10:48.636Z,8.38
2023-03-31T07:13:18.559Z,6.45
2023-03-31T07:15:48.422Z,5.13
2023-03-31T07:18:16.027Z,6.90
2023-03-31T07:20:43.687Z,4.88
2023-03-31T07:23:10.608Z,4.95
2023-03-31T07:25:37.359Z,4.45
2023-03-31T07:28:05.069Z,3.05
2023-03-31T07:30:32.387Z,6.82
2023-03-31T07:32:59.507Z,7.10
2023-03-31T07:35:26.267Z,4.32
2023-03-31T07:37:53.104Z,6.60
2023-03-31T07:40:23.830Z,6.30
2023-03-31T07:42:52.177Z,4.32
2023-03-31T07:45:21.046Z,4.00
2023-03-31T07:47:48.937Z,6.20
2023-03-31T07:50:16.585Z,5.97
2023-03-31T07:52:46.672Z,5.93
2023-03-31T07:55:14.427Z,4.30
2023-03-31T07:57:42.040Z,5.65
2023-03-31T08:00:12.302Z,5.25
2023-03-31T08:02:40.983Z,5.35
2023-03-31T08:05:07.926Z,3.80
2023-03-31T08:07:40.001Z,8.60
2023-03-31T08:10:10.197Z,9.35
2023-03-31T08:12:36.921Z,7.05
2023-03-31T08:15:04.134Z,1.88
2023-03-31T08:17:31.054Z,3.58
2023-03-31T08:19:59.792Z,6.82
2023-03-31T08:24:56.148Z,7.47
2023-03-31T08:27:22.849Z,12.48
2023-03-31T08:29:50.013Z,7.43
2023-03-31T08:32:16.688Z,6.00
2023-03-31T08:34:43.689Z,6.72
2023-03-31T08:37:10.578Z,9.85
2023-03-31T08:39:37.266Z,10.55
2023-03-31T08:42:44.085Z,8.25
2023-03-31T08:45:36.171Z,9.40
2023-03-31T08:48:10.900Z,13.48
2023-03-31T08:50:45.791Z,6.80
2023-03-31T08:53:19.609Z,10.10
2023-03-31T08:55:52.002Z,10.95
2023-03-31T08:58:31.698Z,11.02
2023-03-31T09:01:02.048Z,8.63
2023-03-31T09:03:42.016Z,11.93
2023-03-31T09:06:17.388Z,15.48
2023-03-31T09:08:44.802Z,10.73
2023-03-31T09:11:13.898Z,12.82
2023-03-31T09:13:44.980Z,12.93
2023-03-31T09:16:17.701Z,15.43
2023-03-31T09:18:46.839Z,12.85
2023-03-31T09:21:27.652Z,17.63
2023-03-31T09:24:05.543Z,19.02
2023-03-31T09:26:49.136Z,19.00
2023-03-31T09:29:29.475Z,12.48
2023-03-31T09:32:02.190Z,12.80
2023-03-31T09:34:33.428Z,14.65
2023-03-31T09:37:00.343Z,14.45
2023-03-31T09:39:27.250Z,12.73
2023-03-31T09:41:55.556Z,15.05
2023-03-31T09:44:22.223Z,16.45
2023-03-31T09:46:50.293Z,19.02
2023-03-31T09:49:25.938Z,16.38
2023-03-31T09:52:04.540Z,19.77
2023-03-31T09:54:45.816Z,14.57
2023-03-31T09:57:33.794Z,12.45
2023-03-31T10:00:19.225Z,15.82
2023-03-31T10:02:51.011Z,11.38
2023-03-31T10:05:36.313Z,13.32
2023-03-31T10:08:17.645Z,12.48
2023-03-31T10:10:55.573Z,16.55
2023-03-31T10:13:50.684Z,13.23
2023-03-31T10:16:31.275Z,11.82
2023-03-31T10:19:22.494Z,11.77
2023-03-31T10:21:58.647Z,15.80
2023-03-31T10:24:27.704Z,11.15
2023-03-31T10:26:57.190Z,18.50
2023-03-31T10:29:33.072Z,8.05
2023-03-31T10:32:05.343Z,9.50
2023-03-31T10:34:32.312Z,10.52
2023-03-31T10:36:59.718Z,13.63
2023-03-31T10:39:31.458Z,12.15
2023-03-31T10:44:37.686Z,14.13
2023-03-31T10:47:19.856Z,9.80
2023-03-31T10:49:51.427Z,9.07
2023-03-31T10:52:23.937Z,12.57
2023-03-31T10:54:56.440Z,11.25
2023-03-31T10:57:39.648Z,14.63
2023-03-31T11:00:32.163Z,13.45
2023-03-31T11:03:17.523Z,14.73
2023-03-31T11:05:57.658Z,11.60
2023-03-31T11:08:37.503Z,11.98
2023-03-31T11:11:19.004Z,12.18
2023-03-31T11:14:01.245Z,11.40
2023-03-31T11:16:41.858Z,10.13
2023-03-31T11:19:19.808Z,11.70
2023-03-31T11:22:12.291Z,12.77
2023-03-31T11:25:03.697Z,10.70
2023-03-31T11:27:52.210Z,10.95
2023-03-31T11:30:24.355Z,14.30
2023-03-31T11:33:23.063Z,13.65
2023-03-31T11:36:07.505Z,17.08
2023-03-31T11:38:54.197Z,11.40
2023-03-31T11:41:45.582Z,12.85
2023-03-31T11:44:15.327Z,13.38
2023-03-31T11:46:41.951Z,9.30
2023-03-31T11:49:24.306Z,11.20
2023-03-31T11:51:59.463Z,8.77
2023-03-31T11:54:58.517Z,13.60
2023-03-31T11:57:40.465Z,14.82
2023-03-31T12:00:22.622Z,15.57
2023-03-31T12:03:04.207Z,12.90
2023-03-31T12:05:33.646Z,9.27
2023-03-31T12:08:18.665Z,10.02
2023-03-31T12:10:51.396Z,9.27
2023-03-31T12:13:29.971Z,10.05
2023-03-31T12:16:02.505Z,9.70
2023-03-31T12:18:58.482Z,10.20
2023-03-31T12:21:27.264Z,10.63
2023-03-31T12:23:54.153Z,7.80
2023-03-31T12:26:51.209Z,10.95
2023-03-31T12:29:31.801Z,8.77
2023-03-31T12:32:02.250Z,5.95
2023-03-31T12:34:30.692Z,7.85
2023-03-31T12:37:19.671Z,6.80
2023-03-31T12:39:55.604Z,8.95
2023-03-31T12:43:06.625Z,8.40
2023-03-31T12:46:18.073Z,7.32
2023-03-31T12:48:54.003Z,11.95
2023-03-31T12:51:44.680Z,10.13
2023-03-31T12:54:36.397Z,5.90
2023-03-31T12:57:04.927Z,9.07
2023-03-31T12:59:34.560Z,5.63
2023-03-31T13:02:10.549Z,8.32
2023-03-31T13:04:38.472Z,10.13
2023-03-31T13:07:25.399Z,7.38
2023-03-31T13:10:24.731Z,8.20
2023-03-31T13:13:04.482Z,9.75
2023-03-31T13:15:31.987Z,12.13
2023-03-31T13:18:04.630Z,8.77
2023-03-31T13:20:37.444Z,11.05
2023-03-31T13:23:21.570Z,12.23
2023-03-31T13:25:55.949Z,9.90
2023-03-31T13:28:22.512Z,12.57
2023-03-31T13:30:55.678Z,11.73
2023-03-31T13:33:59.474Z,7.78
2023-03-31T13:36:31.921Z,13.38
2023-03-31T13:39:36.349Z,10.10
2023-03-31T13:42:24.771Z,15.02
2023-03-31T13:44:55.526Z,12.85
2023-03-31T13:47:58.635Z,9.20
2023-03-31T13:50:50.736Z,8.98
2023-03-31T13:55:59.676Z,5.43
2023-03-31T13:58:57.302Z,10.40
2023-03-31T14:01:54.522Z,8.63
2023-03-31T14:04:53.196Z,6.45
2023-03-31T14:07:55.067Z,6.57
2023-03-31T14:10:37.187Z,7.45
2023-03-31T14:13:09.596Z,10.20
2023-03-31T14:15:39.975Z,9.13
2023-03-31T14:18:08.564Z,8.52
2023-03-31T14:21:03.087Z,8.90
2023-03-31T14:23:53.676Z,10.60
2023-03-31T14:26:31.664Z,10.45
2023-03-31T14:29:11.121Z,5.68
2023-03-31T14:31:55.696Z,7.38
2023-03-31T14:34:32.218Z,10.32
2023-03-31T14:37:17.641Z,5.68
2023-03-31T14:39:55.050Z,7.18
2023-03-31T14:42:26.937Z,6.70
2023-03-31T14:44:58.425Z,9.60
2023-03-31T14:47:29.123Z,7.55
2023-03-31T14:50:07.811Z,7.40
2023-03-31T14:52:35.708Z,6.50
2023-03-31T14:55:02.444Z,4.72
2023-03-31T14:57:35.878Z,6.13
2023-03-31T15:00:09.766Z,5.03
2023-03-31T15:02:45.064Z,4.40
2023-03-31T15:05:28.073Z,2.88
2023-03-31T15:07:59.932Z,3.45
2023-03-31T15:10:33.018Z,3.60
2023-03-31T15:13:01.620Z,4.97
2023-03-31T15:15:28.287Z,4.43
2023-03-31T15:17:54.985Z,4.97
2023-03-31T15:20:36.316Z,4.30
2023-03-31T15:23:05.520Z,3.28
2023-03-31T15:25:41.937Z,4.95
2023-03-31T15:28:13.385Z,3.10
2023-03-31T15:30:40.351Z,4.75
2023-03-31T15:33:19.063Z,4.10
2023-03-31T15:35:46.926Z,7.95
2023-03-31T15:38:18.304Z,5.38
2023-03-31T15:40:50.016Z,5.80
2023-03-31T15:43:25.566Z,6.70
2023-03-31T15:45:54.289Z,5.60
2023-03-31T15:48:54.145Z,5.50
2023-03-31T15:51:37.134Z,6.05
2023-03-31T15:54:14.901Z,5.95
2023-03-31T15:56:45.260Z,5.18
2023-03-31T15:59:37.905Z,4.57
2023-03-31T16:02:13.448Z,6.65
2023-03-31T16:04:40.593Z,3.83
2023-03-31T16:07:18.385Z,4.32
2023-03-31T16:09:59.470Z,3.65
2023-03-31T16:12:54.784Z,4.37
2023-03-31T16:15:37.735Z,5.10
2023-03-31T16:18:12.952Z,4.90
2023-03-31T16:20:45.821Z,3.13
2023-03-31T16:23:16.673Z,4.15
2023-03-31T16:25:44.166Z,3.43
2023-03-31T16:28:16.546Z,3.97
2023-03-31T16:30:44.968Z,5.15
2023-03-31T16:33:17.626Z,4.25
2023-03-31T16:35:51.026Z,4.28
2023-03-31T16:38:18.266Z,6.07
2023-03-31T16:40:56.058Z,3.25
2023-03-31T16:43:26.441Z,3.65
2023-03-31T16:45:56.055Z,4.22
2023-03-31T16:48:24.946Z,3.75
2023-03-31T16:50:54.278Z,6.70
2023-03-31T16:53:23.424Z,6.38
2023-03-31T16:55:50.584Z,2.55
2023-03-31T16:58:17.950Z,3.78
2023-03-31T17:00:45.711Z,4.15
2023-03-31T17:03:14.913Z,2.22
2023-03-31T17:05:43.724Z,3.22
2023-03-31T17:08:12.041Z,6.15
2023-03-31T17:10:40.058Z,4.18
2023-03-31T17:13:08.250Z,3.38
2023-03-31T17:15:36.414Z,4.07
2023-03-31T17:18:04.419Z,5.63
2023-03-31T17:20:31.415Z,3.03
2023-03-31T17:22:58.694Z,3.88
2023-03-31T17:25:25.619Z,4.75
2023-03-31T17:27:52.509Z,4.35
2023-03-31T17:30:19.266Z,6.30
2023-03-31T17:32:46.365Z,3.80
2023-03-31T17:35:20.363Z,3.40
2023-03-31T17:37:53.651Z,3.25
2023-03-31T17:40:21.408Z,3.83
2023-03-31T17:42:48.090Z,4.32
2023-03-31T17:45:14.947Z,4.65
2023-03-31T17:47:42.623Z,4.43
2023-03-31T17:50:10.149Z,6.25
2023-03-31T17:52:36.879Z,3.47
2023-03-31T17:55:04.559Z,3.35
2023-03-31T17:57:32.738Z,3.33
2023-03-31T17:59:59.463Z,5.60
2023-03-31T18:02:26.175Z,5.22
2023-03-31T18:04:53.379Z,5.07
2023-03-31T18:07:23.063Z,5.40
2023-03-31T18:09:49.803Z,4.45
2023-03-31T18:12:16.482Z,4.22
2023-03-31T18:14:43.217Z,7.07
2023-03-31T18:17:14.677Z,5.70
2023-03-31T18:19:42.763Z,6.72
2023-03-31T18:22:10.603Z,5.72
2023-03-31T18:24:38.395Z,5.50
2023-03-31T18:27:05.541Z,3.70
2023-03-31T18:29:32.504Z,4.60
2023-03-31T18:31:59.665Z,4.80
2023-03-31T18:34:26.694Z,6.63
2023-03-31T18:36:53.489Z,5.40
2023-03-31T18:39:20.329Z,7.03
2023-03-31T18:41:48.547Z,8.23
2023-03-31T18:44:18.254Z,8.30
2023-03-31T18:46:45.600Z,10.32
2023-03-31T18:49:12.837Z,6.55
2023-03-31T18:51:39.496Z,6.43
2023-03-31T18:54:06.400Z,6.75
2023-03-31T18:56:33.266Z,8.45
2023-03-31T18:58:59.959Z,8.45
2023-03-31T19:01:27.135Z,9.75
2023-03-31T19:03:53.945Z,10.45
2023-03-31T19:06:22.357Z,15.32
2023-03-31T19:08:49.008Z,9.82
2023-03-31T19:11:17.057Z,9.45
2023-03-31T19:13:44.284Z,13.88
2023-03-31T19:16:12.440Z,12.18
2023-03-31T19:18:39.641Z,9.95
2023-03-31T19:21:06.390Z,16.08
2023-03-31T19:23:34.025Z,9.43
2023-03-31T19:26:00.784Z,13.15
2023-03-31T19:28:27.896Z,11.73
2023-03-31T19:30:56.534Z,14.00
2023-03-31T19:33:24.018Z,9.48
2023-03-31T19:35:51.113Z,10.13
2023-03-31T19:38:19.222Z,10.60
2023-03-31T19:40:45.821Z,8.85
2023-03-31T19:43:20.650Z,9.20
2023-03-31T19:45:48.765Z,10.75
2023-03-31T19:48:16.553Z,9.95
2023-03-31T19:50:54.486Z,9.85
2023-03-31T19:53:21.699Z,12.13
2023-03-31T19:56:03.035Z,13.40
2023-03-31T19:58:30.855Z,10.95
2023-03-31T20:00:58.170Z,15.65
2023-03-31T20:03:27.188Z,9.95
2023-03-31T20:06:06.810Z,8.90
2023-03-31T20:08:34.690Z,12.15
2023-03-31T20:11:03.846Z,10.13
2023-03-31T20:13:32.478Z,10.73
2023-03-31T20:16:01.859Z,12.73
2023-03-31T20:18:29.214Z,10.63
2023-03-31T20:21:23.398Z,13.90
2023-03-31T20:23:51.071Z,14.15
2023-03-31T20:26:20.771Z,13.18
2023-03-31T20:28:48.328Z,12.13
2023-03-31T20:31:18.815Z,13.20
2023-03-31T20:33:46.090Z,11.88
2023-03-31T20:36:18.517Z,18.58
2023-03-31T20:38:47.376Z,15.07
2023-03-31T20:41:14.685Z,9.73
2023-03-31T20:43:41.737Z,13.30
2023-03-31T20:46:09.082Z,14.10
2023-03-31T20:48:40.563Z,12.18
2023-03-31T20:51:12.117Z,11.40
2023-03-31T20:53:41.965Z,11.10
2023-03-31T20:56:14.759Z,9.30
2023-03-31T20:58:43.906Z,12.82
2023-03-31T21:01:11.542Z,13.57
2023-03-31T21:03:38.542Z,13.50
2023-03-31T21:06:11.432Z,9.25
2023-03-31T21:08:39.582Z,9.07
2023-03-31T21:11:06.375Z,13.77
2023-03-31T21:13:33.607Z,10.00
2023-03-31T21:16:01.192Z,10.93
2023-03-31T21:18:29.472Z,11.25
2023-03-31T21:20:58.461Z,9.45
2023-03-31T21:23:26.225Z,9.77
2023-03-31T21:25:55.439Z,9.05
2023-03-31T21:28:25.777Z,9.38
2023-03-31T21:30:54.575Z,7.90
2023-03-31T21:33:22.754Z,10.63
2023-03-31T21:35:49.919Z,4.85
2023-03-31T21:38:16.961Z,7.30
2023-03-31T21:40:44.149Z,8.52
2023-03-31T21:43:11.216Z,6.20
2023-03-31T21:45:39.239Z,6.47
2023-03-31T21:48:08.207Z,6.90
2023-03-31T21:50:36.371Z,6.97
2023-03-31T21:53:04.856Z,8.88
2023-03-31T21:55:33.111Z,6.82
2023-03-31T21:58:00.969Z,5.13
2023-03-31T22:00:28.009Z,9.15
2023-03-31T22:03:06.379Z,4.70
2023-03-31T22:05:42.082Z,4.90
2023-03-31T22:08:08.727Z,5.75
2023-03-31T22:10:35.330Z,7.15
2023-03-31T22:13:02.054Z,4.65
2023-03-31T22:15:28.758Z,6.70
2023-03-31T22:17:56.314Z,11.13
2023-03-31T22:20:23.416Z,7.95
2023-03-31T22:22:50.225Z,10.25
2023-03-31T22:25:16.881Z,10.88
2023-03-31T22:27:43.563Z,9.15
2023-03-31T22:30:10.952Z,10.27
2023-03-31T22:32:37.605Z,12.80
2023-03-31T22:35:04.535Z,10.80
2023-03-31T22:37:31.567Z,10.93
2023-03-31T22:39:58.261Z,17.42
2023-03-31T22:42:24.923Z,12.80
2023-03-31T22:44:51.589Z,13.07
2023-03-31T22:47:18.192Z,12.13
2023-03-31T22:49:44.864Z,13.05
2023-03-31T22:52:11.668Z,15.52
2023-03-31T22:54:40.092Z,14.07
2023-03-31T22:57:07.585Z,19.33
2023-03-31T22:59:35.055Z,11.30
2023-03-31T23:02:01.779Z,15.65
2023-03-31T23:04:28.562Z,21.58
2023-03-31T23:06:55.823Z,13.35
2023-03-31T23:09:23.804Z,13.18
2023-03-31T23:11:51.217Z,15.80
2023-03-31T23:14:18.039Z,20.23
2023-03-31T23:16:44.968Z,21.10
2023-03-31T23:19:12.267Z,14.95
2023-03-31T23:21:38.925Z,19.48
2023-03-31T23:24:06.113Z,17.98
2023-03-31T23:26:33.794Z,19.30
2023-03-31T23:29:00.644Z,18.58
2023-03-31T23:31:33.162Z,24.13
2023-03-31T23:34:00.426Z,20.90
2023-03-31T23:36:27.690Z,29.10
2023-03-31T23:38:55.763Z,24.42
2023-03-31T23:41:22.895Z,28.25
2023-03-31T23:43:51.181Z,22.48
2023-03-31T23:46:18.050Z,21.40
2023-03-31T23:48:45.340Z,23.63
2023-03-31T23:51:12.676Z,21.13
2023-03-31T23:53:39.486Z,32.78
2023-03-31T23:56:09.571Z,18.73
2023-03-31T23:58:37.412Z,22.38
